Time;durP1;ratioP1;P1;durP2;ratioP2;P2;SDS_P1;SDS_P2;PMS_P1;PMS_P2;Temp;Humidity;BMP_temperature;BMP_pressure;BME280_temperature;BME280_humidity;BME280_pressure;Samples;Min_cycle;Max_cycle;Signal;HPM_P1;HPM_P2
2022/06/28 00:00:46;;;;;;;;;;;27.30;51.10;;;;;;2100427;28;846;-79
2022/06/28 00:01:47;;;;;;;;;;;27.30;51.10;;;;;;2100276;28;1238;-79
2022/06/28 00:02:47;;;;;;;;;;;27.30;51.10;;;;;;2100309;28;818;-79
2022/06/28 00:03:48;;;;;;;;;;;27.30;51.10;;;;;;2100881;28;921;-79
2022/06/28 00:04:48;;;;;;;;;;;27.30;51.10;;;;;;2100893;28;1351;-79
2022/06/28 00:05:48;;;;;;;;;;;27.30;51.10;;;;;;2100174;28;1283;-79
2022/06/28 00:06:49;;;;;;;;;;;27.30;51.10;;;;;;2100285;28;905;-79
2022/06/28 00:07:49;;;;;;;;;;;27.30;51.10;;;;;;2100957;28;937;-79
2022/06/28 00:08:50;;;;;;;;;;;27.30;51.10;;;;;;2100692;28;1898;-79
2022/06/28 00:09:50;;;;;;;;;;;27.30;51.10;;;;;;2100314;28;1375;-79
2022/06/28 00:10:51;;;;;;;;;;;27.30;51.10;;;;;;2092027;28;1416;-79
2022/06/28 00:11:51;;;;;;;;;;;27.30;51.10;;;;;;2100244;28;1355;-79
2022/06/28 00:12:51;;;;;;;;;;;27.30;51.10;;;;;;2091939;28;1237;-79
2022/06/28 00:13:52;;;;;;;;;;;27.30;51.10;;;;;;2100366;28;951;-79
2022/06/28 00:16:15;;;;;;;;;;;27.30;51.10;;;;;;2100891;28;671;-79
2022/06/28 00:17:15;;;;;;;;;;;27.30;51.10;;;;;;2100945;28;825;-79
2022/06/28 00:18:16;;;;;;;;;;;27.30;51.10;;;;;;2100714;28;1038;-79
2022/06/28 00:19:16;;;;;;;;;;;27.30;51.10;;;;;;2100756;28;852;-79
2022/06/28 00:20:17;;;;;;;;;;;27.30;51.10;;;;;;2100981;28;852;-79
2022/06/28 00:21:17;;;;;;;;;;;27.40;51.10;;;;;;2100882;28;1088;-79
2022/06/28 00:22:17;;;;;;;;;;;27.40;51.10;;;;;;2100102;28;1287;-79
2022/06/28 00:23:18;;;;;;;;;;;27.30;51.10;;;;;;2100261;28;1015;-79
2022/06/28 00:24:18;;;;;;;;;;;27.30;51.10;;;;;;2099995;28;1247;-79
2022/06/28 00:25:19;;;;;;;;;;;27.30;51.10;;;;;;2100135;28;889;-79
2022/06/28 00:26:19;;;;;;;;;;;27.30;51.10;;;;;;2100886;28;891;-79
2022/06/28 00:27:20;;;;;;;;;;;27.30;51.10;;;;;;2100148;28;1293;-79
2022/06/28 00:28:20;;;;;;;;;;;27.30;51.10;;;;;;2091898;28;1878;-79
2022/06/28 00:29:20;;;;;;;;;;;27.30;51.10;;;;;;2100316;28;888;-79
2022/06/28 00:30:21;;;;;;;;;;;27.30;51.10;;;;;;2100588;28;1019;-79
2022/06/28 00:31:25;;;;;;;;;;;27.30;51.10;;;;;;2100137;28;1269;-80
2022/06/28 00:32:25;;;;;;;;;;;27.40;51.10;;;;;;2092359;28;1230;-79
2022/06/28 00:33:25;;;;;;;;;;;27.30;51.20;;;;;;2100244;28;905;-79
2022/06/28 00:34:26;;;;;;;;;;;27.30;51.10;;;;;;2100550;28;1251;-79
2022/06/28 00:35:26;;;;;;;;;;;27.30;51.10;;;;;;2099970;28;1398;-79
2022/06/28 00:36:26;;;;;;;;;;;27.30;51.10;;;;;;2091739;28;1246;-79
2022/06/28 00:37:27;;;;;;;;;;;27.30;51.10;;;;;;2100190;28;892;-79
2022/06/28 00:38:27;;;;;;;;;;;27.30;51.10;;;;;;2099576;28;1261;-79
2022/06/28 00:39:27;;;;;;;;;;;27.30;51.20;;;;;;2091806;28;1262;-79
2022/06/28 00:40:28;;;;;;;;;;;27.30;51.20;;;;;;2100081;28;1056;-79
2022/06/28 00:41:28;;;;;;;;;;;27.30;51.10;;;;;;2100698;28;853;-79
2022/06/28 00:42:29;;;;;;;;;;;27.30;51.20;;;;;;2100546;28;842;-79
2022/06/28 00:43:29;;;;;;;;;;;27.40;51.20;;;;;;2100620;28;801;-79
2022/06/28 00:44:30;;;;;;;;;;;27.30;51.20;;;;;;2100571;28;1158;-79
2022/06/28 00:45:30;;;;;;;;;;;27.30;51.20;;;;;;2100046;28;1261;-79
2022/06/28 00:46:33;;;;;;;;;;;27.30;51.20;;;;;;2100080;28;912;-79
2022/06/28 00:47:33;;;;;;;;;;;27.30;51.20;;;;;;2099935;28;1206;-79
2022/06/28 00:48:34;;;;;;;;;;;27.30;51.20;;;;;;2091629;28;1957;-79
2022/06/28 00:49:34;;;;;;;;;;;27.30;51.10;;;;;;2091596;28;1124;-79
2022/06/28 00:50:34;;;;;;;;;;;27.30;51.20;;;;;;2091521;28;1191;-79
2022/06/28 00:51:35;;;;;;;;;;;27.30;51.20;;;;;;2091697;28;1552;-79
2022/06/28 00:52:36;;;;;;;;;;;27.30;51.20;;;;;;2091583;28;1376;-79
2022/06/28 00:53:36;;;;;;;;;;;27.40;51.20;;;;;;2099993;28;805;-79
2022/06/28 00:54:36;;;;;;;;;;;27.30;51.20;;;;;;2099724;28;1299;-79
2022/06/28 00:55:37;;;;;;;;;;;27.30;51.10;;;;;;2099956;28;919;-79
2022/06/28 00:56:38;;;;;;;;;;;27.30;51.20;;;;;;2100732;28;1050;-79
2022/06/28 00:57:38;;;;;;;;;;;27.30;51.20;;;;;;2099919;28;1318;-79
2022/06/28 00:58:38;;;;;;;;;;;27.30;51.10;;;;;;2091448;28;1508;-79
2022/06/28 00:59:39;;;;;;;;;;;27.30;51.20;;;;;;2099796;28;1397;-79
2022/06/28 01:00:40;;;;;;;;;;;27.30;51.20;;;;;;2091525;28;1120;-79
2022/06/28 01:01:40;;;;;;;;;;;27.30;51.20;;;;;;2099832;28;1217;-79
2022/06/28 01:02:41;;;;;;;;;;;27.30;51.10;;;;;;2091487;28;1320;-79
2022/06/28 01:03:41;;;;;;;;;;;27.30;51.10;;;;;;2099790;28;845;-79
2022/06/28 01:04:41;;;;;;;;;;;27.30;51.20;;;;;;2108035;28;1188;-79
2022/06/28 01:05:42;;;;;;;;;;;27.30;51.20;;;;;;2099852;28;1354;-79
2022/06/28 01:06:42;;;;;;;;;;;27.30;51.10;;;;;;2099901;28;817;-79
2022/06/28 01:07:42;;;;;;;;;;;27.30;51.20;;;;;;2099688;28;1232;-79
2022/06/28 01:08:43;;;;;;;;;;;27.30;51.20;;;;;;2091428;28;1962;-79
2022/06/28 01:09:43;;;;;;;;;;;27.30;51.20;;;;;;2099756;28;1322;-79
2022/06/28 01:10:44;;;;;;;;;;;27.30;51.20;;;;;;2099864;28;1046;-79
2022/06/28 01:11:44;;;;;;;;;;;27.30;51.10;;;;;;2099695;28;1352;-79
2022/06/28 01:12:45;;;;;;;;;;;27.30;51.20;;;;;;2099941;28;869;-79
2022/06/28 01:13:45;;;;;;;;;;;27.30;51.10;;;;;;2100372;28;1074;-79
2022/06/28 01:14:45;;;;;;;;;;;27.30;51.20;;;;;;2099669;28;1279;-79
2022/06/28 01:15:46;;;;;;;;;;;27.30;51.10;;;;;;2091341;28;1230;-79
2022/06/28 01:16:47;;;;;;;;;;;27.30;51.10;;;;;;2099794;28;813;-79
2022/06/28 01:17:47;;;;;;;;;;;27.30;51.10;;;;;;2100390;28;933;-79
2022/06/28 01:18:47;;;;;;;;;;;27.30;51.10;;;;;;2099762;28;1379;-79
2022/06/28 01:19:48;;;;;;;;;;;27.30;51.10;;;;;;2099742;28;843;-79
2022/06/28 01:20:48;;;;;;;;;;;27.30;51.10;;;;;;2100286;28;888;-79
2022/06/28 01:21:49;;;;;;;;;;;27.30;51.10;;;;;;2100315;28;912;-79
2022/06/28 01:22:50;;;;;;;;;;;27.30;51.10;;;;;;2100498;28;821;-79
2022/06/28 01:23:50;;;;;;;;;;;27.30;51.10;;;;;;2099499;28;1226;-79
2022/06/28 01:24:50;;;;;;;;;;;27.30;51.10;;;;;;2091405;28;1360;-79
2022/06/28 01:25:51;;;;;;;;;;;27.30;51.10;;;;;;2099736;28;952;-79
2022/06/28 01:26:51;;;;;;;;;;;27.30;51.10;;;;;;2100373;28;853;-79
2022/06/28 01:27:51;;;;;;;;;;;27.30;51.10;;;;;;2099696;28;1258;-79
2022/06/28 01:28:52;;;;;;;;;;;27.30;51.10;;;;;;2099655;28;1902;-78
2022/06/28 01:29:52;;;;;;;;;;;27.30;51.10;;;;;;2100282;28;953;-79
2022/06/28 01:30:53;;;;;;;;;;;27.30;51.10;;;;;;2100124;28;1023;-79
2022/06/28 01:31:53;;;;;;;;;;;27.30;51.10;;;;;;2099470;28;1269;-79
2022/06/28 01:32:54;;;;;;;;;;;27.30;51.10;;;;;;2099633;28;906;-79
2022/06/28 01:33:54;;;;;;;;;;;27.30;51.10;;;;;;2100167;28;802;-79
2022/06/28 01:34:54;;;;;;;;;;;27.30;51.10;;;;;;2099553;28;1264;-78
2022/06/28 01:35:55;;;;;;;;;;;27.30;51.10;;;;;;2099643;28;794;-79
2022/06/28 01:36:55;;;;;;;;;;;27.30;51.10;;;;;;2099637;28;1279;-79
2022/06/28 01:37:56;;;;;;;;;;;27.30;51.10;;;;;;2098558;28;1441;-79
2022/06/28 01:38:56;;;;;;;;;;;27.30;51.10;;;;;;2096947;28;1023;-79
2022/06/28 01:39:56;;;;;;;;;;;27.30;51.10;;;;;;2099611;28;944;-79
2022/06/28 01:40:57;;;;;;;;;;;27.30;51.10;;;;;;2100078;28;1083;-79
2022/06/28 01:41:57;;;;;;;;;;;27.30;51.10;;;;;;2100243;28;846;-79
2022/06/28 01:42:57;;;;;;;;;;;27.30;51.10;;;;;;2100074;28;936;-79
2022/06/28 01:43:58;;;;;;;;;;;27.30;51.10;;;;;;2100076;28;869;-79
2022/06/28 01:44:58;;;;;;;;;;;27.30;51.10;;;;;;2099326;28;1375;-79
2022/06/28 01:45:59;;;;;;;;;;;27.30;51.10;;;;;;2099465;28;952;-79
2022/06/28 01:46:59;;;;;;;;;;;27.30;51.10;;;;;;2100118;28;875;-79
2022/06/28 01:48:00;;;;;;;;;;;27.30;51.00;;;;;;2099333;28;1384;-79
2022/06/28 01:49:00;;;;;;;;;;;27.30;51.10;;;;;;2099568;28;1913;-79
2022/06/28 01:50:00;;;;;;;;;;;27.30;51.10;;;;;;2098765;28;1227;-79
2022/06/28 01:51:01;;;;;;;;;;;27.30;51.10;;;;;;2091370;28;1379;-79
2022/06/28 01:52:01;;;;;;;;;;;27.30;51.00;;;;;;2091048;28;1398;-79
2022/06/28 01:53:02;;;;;;;;;;;27.30;51.00;;;;;;2091090;28;1360;-79
2022/06/28 01:54:02;;;;;;;;;;;27.30;51.10;;;;;;2099491;28;896;-79
2022/06/28 01:55:02;;;;;;;;;;;27.30;51.10;;;;;;2099990;28;1255;-79
2022/06/28 01:56:03;;;;;;;;;;;27.30;51.00;;;;;;2100049;28;828;-79
2022/06/28 01:57:04;;;;;;;;;;;27.30;51.00;;;;;;2099982;28;830;-79
2022/06/28 01:58:04;;;;;;;;;;;27.30;51.00;;;;;;2100143;28;944;-79
2022/06/28 01:59:04;;;;;;;;;;;27.30;51.00;;;;;;2099490;28;1261;-79
2022/06/28 02:00:05;;;;;;;;;;;27.30;51.00;;;;;;2091262;28;1293;-79
2022/06/28 02:01:05;;;;;;;;;;;27.30;51.00;;;;;;2099290;28;1155;-79
2022/06/28 02:02:05;;;;;;;;;;;27.30;51.00;;;;;;2091099;28;1233;-79
2022/06/28 02:03:06;;;;;;;;;;;27.30;51.00;;;;;;2099569;28;905;-79
2022/06/28 02:04:06;;;;;;;;;;;27.30;51.00;;;;;;2100081;28;886;-79
2022/06/28 02:05:07;;;;;;;;;;;27.30;51.00;;;;;;2099202;28;1292;-79
2022/06/28 02:06:07;;;;;;;;;;;27.30;51.00;;;;;;2091363;28;1189;-79
2022/06/28 02:07:08;;;;;;;;;;;27.30;51.00;;;;;;2099555;28;858;-79
2022/06/28 02:08:09;;;;;;;;;;;27.30;51.00;;;;;;2100088;28;1028;-79
2022/06/28 02:09:09;;;;;;;;;;;27.30;51.00;;;;;;2099831;28;1890;-79
2022/06/28 02:10:10;;;;;;;;;;;27.30;51.00;;;;;;2099931;28;1032;-79
2022/06/28 02:11:11;;;;;;;;;;;27.30;51.00;;;;;;2100027;28;900;-79
2022/06/28 02:12:11;;;;;;;;;;;27.30;51.00;;;;;;2099257;28;1274;-79
2022/06/28 02:13:11;;;;;;;;;;;27.30;51.00;;;;;;2090926;28;1211;-79
2022/06/28 02:14:12;;;;;;;;;;;27.30;51.00;;;;;;2099332;28;908;-79
2022/06/28 02:15:13;;;;;;;;;;;27.30;51.00;;;;;;2099946;28;1287;-79
2022/06/28 02:16:14;;;;;;;;;;;27.30;51.00;;;;;;2100008;28;872;-79
2022/06/28 02:17:14;;;;;;;;;;;27.30;51.00;;;;;;2099793;28;1007;-79
2022/06/28 02:18:15;;;;;;;;;;;27.30;51.00;;;;;;2099953;28;878;-79
2022/06/28 02:19:16;;;;;;;;;;;27.30;51.00;;;;;;2099941;28;901;-79
2022/06/28 02:20:16;;;;;;;;;;;27.30;51.00;;;;;;2100000;28;813;-79
2022/06/28 02:21:16;;;;;;;;;;;27.30;51.00;;;;;;2099773;28;1071;-79
2022/06/28 02:22:17;;;;;;;;;;;27.30;51.00;;;;;;2099980;28;868;-79
2022/06/28 02:23:18;;;;;;;;;;;27.30;51.00;;;;;;2099903;28;889;-79
2022/06/28 02:24:18;;;;;;;;;;;27.30;51.00;;;;;;2099137;28;1391;-78
2022/06/28 02:25:18;;;;;;;;;;;27.30;51.00;;;;;;2099432;28;885;-79
2022/06/28 02:26:19;;;;;;;;;;;27.30;51.00;;;;;;2099937;28;976;-79
2022/06/28 02:27:19;;;;;;;;;;;27.30;51.00;;;;;;2099818;28;1027;-79
2022/06/28 02:28:20;;;;;;;;;;;27.30;51.00;;;;;;2100025;28;938;-79
2022/06/28 02:29:20;;;;;;;;;;;27.30;51.00;;;;;;2099127;28;1959;-79
2022/06/28 02:30:21;;;;;;;;;;;27.30;51.00;;;;;;2090970;28;1241;-79
2022/06/28 02:31:21;;;;;;;;;;;27.30;51.00;;;;;;2099549;28;841;-79
2022/06/28 02:32:22;;;;;;;;;;;27.30;51.00;;;;;;2099283;28;1355;-79
2022/06/28 02:33:22;;;;;;;;;;;27.30;51.00;;;;;;2090919;28;1207;-79
2022/06/28 02:40:58;;;;;;;;;;;27.30;51.00;;;;;;2100071;28;612;-79
2022/06/28 02:41:59;;;;;;;;;;;27.30;51.00;;;;;;2108252;28;1023;-78
2022/06/28 02:43:00;;;;;;;;;;;27.30;51.00;;;;;;2104010;28;1039;-79
2022/06/28 02:44:00;;;;;;;;;;;27.30;50.90;;;;;;2099795;28;849;-79
2022/06/28 02:45:00;;;;;;;;;;;27.30;51.00;;;;;;2099644;28;1239;-79
2022/06/28 02:46:01;;;;;;;;;;;27.30;50.90;;;;;;2099806;28;877;-79
2022/06/28 02:47:01;;;;;;;;;;;27.30;50.90;;;;;;2099914;28;818;-79
2022/06/28 02:48:02;;;;;;;;;;;27.30;50.90;;;;;;2099207;28;1339;-79
2022/06/28 02:49:02;;;;;;;;;;;27.30;50.90;;;;;;2090798;28;1909;-79
2022/06/28 02:50:02;;;;;;;;;;;27.30;50.90;;;;;;2098959;28;1188;-79
2022/06/28 02:51:03;;;;;;;;;;;27.30;50.90;;;;;;2099282;28;889;-79
2022/06/28 02:52:03;;;;;;;;;;;27.30;50.90;;;;;;2099156;28;1257;-79
2022/06/28 02:53:04;;;;;;;;;;;27.30;50.90;;;;;;2090939;28;1303;-79
2022/06/28 02:54:04;;;;;;;;;;;27.30;50.90;;;;;;2099300;28;1245;-79
2022/06/28 02:55:06;;;;;;;;;;;27.30;50.90;;;;;;2099094;28;1201;-79
2022/06/28 02:56:06;;;;;;;;;;;27.30;50.90;;;;;;2099784;28;900;-79
2022/06/28 02:57:06;;;;;;;;;;;27.30;50.90;;;;;;2099040;28;1231;-79
2022/06/28 02:58:07;;;;;;;;;;;27.30;50.90;;;;;;2099194;28;1008;-79
2022/06/28 02:59:07;;;;;;;;;;;27.30;50.90;;;;;;2099079;28;1376;-79
2022/06/28 03:00:08;;;;;;;;;;;27.30;50.90;;;;;;2099099;28;964;-79
2022/06/28 03:01:08;;;;;;;;;;;27.30;50.90;;;;;;2100198;28;853;-79
2022/06/28 03:02:08;;;;;;;;;;;27.30;50.90;;;;;;2101337;28;1070;-79
2022/06/28 03:03:09;;;;;;;;;;;27.30;50.90;;;;;;2100771;28;1296;-79
2022/06/28 03:04:09;;;;;;;;;;;27.30;50.90;;;;;;2092518;28;1384;-79
2022/06/28 03:05:10;;;;;;;;;;;27.30;50.90;;;;;;2100665;28;1248;-79
2022/06/28 03:06:10;;;;;;;;;;;27.20;50.90;;;;;;2100686;28;901;-79
2022/06/28 03:07:10;;;;;;;;;;;27.30;50.90;;;;;;2101413;28;789;-79
2022/06/28 03:08:11;;;;;;;;;;;27.30;50.90;;;;;;2100754;28;1241;-79
2022/06/28 03:09:11;;;;;;;;;;;27.30;50.80;;;;;;2100801;28;1871;-79
2022/06/28 03:10:12;;;;;;;;;;;27.30;50.90;;;;;;2101359;28;1039;-79
2022/06/28 03:11:12;;;;;;;;;;;27.30;50.90;;;;;;2100874;28;1202;-79
2022/06/28 03:12:12;;;;;;;;;;;27.30;50.90;;;;;;2092292;28;1262;-79
2022/06/28 03:13:13;;;;;;;;;;;27.30;50.90;;;;;;2100737;28;1384;-79
2022/06/28 03:14:13;;;;;;;;;;;27.30;50.90;;;;;;2100784;28;1035;-79
2022/06/28 03:15:14;;;;;;;;;;;27.30;50.90;;;;;;2101351;28;904;-79
2022/06/28 03:16:14;;;;;;;;;;;27.30;50.90;;;;;;2101358;28;940;-79
2022/06/28 03:17:15;;;;;;;;;;;27.30;50.80;;;;;;2100594;28;1337;-79
2022/06/28 03:18:15;;;;;;;;;;;27.30;50.90;;;;;;2100818;28;932;-79
2022/06/28 03:19:15;;;;;;;;;;;27.30;50.80;;;;;;2101329;28;870;-79
2022/06/28 03:20:16;;;;;;;;;;;27.30;50.90;;;;;;2100628;28;1199;-79
2022/06/28 03:21:16;;;;;;;;;;;27.30;50.90;;;;;;2100792;28;1039;-79
2022/06/28 03:22:16;;;;;;;;;;;27.30;50.80;;;;;;2100465;28;1204;-79
2022/06/28 03:23:17;;;;;;;;;;;27.30;50.90;;;;;;2092333;28;1419;-79
2022/06/28 03:24:17;;;;;;;;;;;27.30;50.80;;;;;;2092348;28;1338;-78
2022/06/28 03:25:17;;;;;;;;;;;27.30;50.90;;;;;;2100677;28;825;-79
2022/06/28 03:26:18;;;;;;;;;;;27.30;50.80;;;;;;2101327;28;956;-79
2022/06/28 03:27:18;;;;;;;;;;;27.30;50.80;;;;;;2100485;28;1161;-79
2022/06/28 03:28:19;;;;;;;;;;;27.30;50.80;;;;;;2092397;28;1257;-79
2022/06/28 03:29:19;;;;;;;;;;;27.30;50.80;;;;;;2100371;28;1986;-79
2022/06/28 03:30:19;;;;;;;;;;;27.30;50.80;;;;;;2092120;28;1223;-79
2022/06/28 03:31:20;;;;;;;;;;;27.30;50.90;;;;;;2100532;28;1241;-79
2022/06/28 03:32:20;;;;;;;;;;;27.30;50.80;;;;;;2100559;28;914;-79
2022/06/28 03:33:20;;;;;;;;;;;27.30;50.80;;;;;;2100570;28;1342;-79
2022/06/28 03:34:21;;;;;;;;;;;27.30;50.80;;;;;;2100463;28;1216;-79
2022/06/28 03:35:21;;;;;;;;;;;27.30;50.80;;;;;;2109001;28;1315;-79
2022/06/28 03:36:22;;;;;;;;;;;27.30;50.90;;;;;;2092346;28;1245;-79
2022/06/28 03:37:22;;;;;;;;;;;27.30;50.80;;;;;;2100492;28;1250;-79
2022/06/28 03:38:22;;;;;;;;;;;27.30;50.90;;;;;;2100585;28;895;-79
2022/06/28 03:39:23;;;;;;;;;;;27.30;50.80;;;;;;2100506;28;1423;-79
2022/06/28 03:40:23;;;;;;;;;;;27.30;50.80;;;;;;2100476;28;1084;-79
2022/06/28 03:41:23;;;;;;;;;;;27.30;50.90;;;;;;2101216;28;920;-78
2022/06/28 03:42:24;;;;;;;;;;;27.30;50.80;;;;;;2100701;28;1446;-78
2022/06/28 03:43:25;;;;;;;;;;;27.30;50.80;;;;;;2092351;28;1245;-78
2022/06/28 03:44:25;;;;;;;;;;;27.30;50.80;;;;;;2100404;28;1336;-78
2022/06/28 03:45:26;;;;;;;;;;;27.30;50.90;;;;;;2094617;28;1405;-79
2022/06/28 03:46:26;;;;;;;;;;;27.30;50.80;;;;;;2110579;28;1171;-79
2022/06/28 03:47:26;;;;;;;;;;;27.30;50.80;;;;;;2100857;28;1082;-79
2022/06/28 03:48:27;;;;;;;;;;;27.30;50.80;;;;;;2100472;28;1910;-79
2022/06/28 03:49:27;;;;;;;;;;;27.30;50.80;;;;;;2100467;28;802;-79
2022/06/28 03:50:28;;;;;;;;;;;27.30;50.90;;;;;;2101090;28;1012;-79
2022/06/28 03:51:28;;;;;;;;;;;27.30;50.80;;;;;;2101162;28;865;-79
2022/06/28 03:52:29;;;;;;;;;;;27.30;50.80;;;;;;2100533;28;1236;-79
2022/06/28 03:53:29;;;;;;;;;;;27.30;50.80;;;;;;2092168;28;1409;-79
2022/06/28 03:54:30;;;;;;;;;;;27.30;50.80;;;;;;2100345;28;1177;-79
2022/06/28 03:55:30;;;;;;;;;;;27.30;50.80;;;;;;2100962;28;1008;-79
2022/06/28 03:56:31;;;;;;;;;;;27.30;50.80;;;;;;2100282;28;1293;-79
2022/06/28 03:57:31;;;;;;;;;;;27.30;50.80;;;;;;2100520;28;1067;-79
2022/06/28 03:58:31;;;;;;;;;;;27.30;50.80;;;;;;2100903;28;1036;-79
2022/06/28 03:59:32;;;;;;;;;;;27.30;50.80;;;;;;2100972;28;859;-79
2022/06/28 04:00:32;;;;;;;;;;;27.30;50.80;;;;;;2100873;28;908;-79
2022/06/28 04:01:32;;;;;;;;;;;27.30;50.80;;;;;;2100352;28;1261;-79
2022/06/28 04:02:33;;;;;;;;;;;27.30;50.80;;;;;;2091942;28;1407;-79
2022/06/28 04:03:34;;;;;;;;;;;27.30;50.80;;;;;;2100390;28;1168;-79
2022/06/28 04:04:34;;;;;;;;;;;27.30;50.80;;;;;;2091983;28;1374;-79
2022/06/28 04:05:34;;;;;;;;;;;27.30;50.80;;;;;;2100303;28;1040;-79
2022/06/28 04:06:35;;;;;;;;;;;27.30;50.80;;;;;;2101021;28;893;-79
2022/06/28 04:07:36;;;;;;;;;;;27.30;50.80;;;;;;2100113;28;1246;-79
2022/06/28 04:08:36;;;;;;;;;;;27.30;50.80;;;;;;2091987;28;1961;-79
2022/06/28 04:09:36;;;;;;;;;;;27.30;50.80;;;;;;2100363;28;802;-79
2022/06/28 04:10:37;;;;;;;;;;;27.30;50.80;;;;;;2100356;28;1419;-79
2022/06/28 04:11:37;;;;;;;;;;;27.30;50.80;;;;;;2100259;28;1048;-79
2022/06/28 04:12:37;;;;;;;;;;;27.30;50.80;;;;;;2099760;28;1272;-79
2022/06/28 04:13:38;;;;;;;;;;;27.30;50.80;;;;;;2099774;28;1277;-79
2022/06/28 04:14:38;;;;;;;;;;;27.30;50.70;;;;;;2100179;28;1244;-79
2022/06/28 04:15:38;;;;;;;;;;;27.30;50.70;;;;;;2091947;28;1256;-79
2022/06/28 04:16:39;;;;;;;;;;;27.30;50.70;;;;;;2100180;28;877;-79
2022/06/28 04:17:41;;;;;;;;;;;27.30;50.80;;;;;;2100162;28;1245;-79
2022/06/28 04:18:41;;;;;;;;;;;27.30;50.70;;;;;;2100549;28;811;-79
2022/06/28 04:19:42;;;;;;;;;;;27.30;50.80;;;;;;2100851;28;868;-79
2022/06/28 04:20:44;;;;;;;;;;;27.30;50.70;;;;;;2100707;28;968;-79
2022/06/28 04:21:44;;;;;;;;;;;27.30;50.70;;;;;;2100767;28;857;-79
2022/06/28 04:22:45;;;;;;;;;;;27.30;50.70;;;;;;2100818;28;885;-79
2022/06/28 04:23:46;;;;;;;;;;;27.30;50.80;;;;;;2100188;28;1348;-79
2022/06/28 04:24:46;;;;;;;;;;;27.30;50.70;;;;;;2100220;28;1267;-79
2022/06/28 04:25:46;;;;;;;;;;;27.30;50.70;;;;;;2100865;28;880;-79
2022/06/28 04:26:47;;;;;;;;;;;27.30;50.70;;;;;;2099977;28;1229;-79
2022/06/28 04:27:47;;;;;;;;;;;27.30;50.70;;;;;;2091925;28;1320;-79
2022/06/28 04:28:47;;;;;;;;;;;27.30;50.70;;;;;;2100170;28;1898;-79
2022/06/28 04:29:48;;;;;;;;;;;27.30;50.80;;;;;;2100836;28;980;-79
2022/06/28 04:30:48;;;;;;;;;;;27.30;50.70;;;;;;2100516;28;981;-79
2022/06/28 04:31:49;;;;;;;;;;;27.30;50.70;;;;;;2100763;28;842;-79
2022/06/28 04:32:49;;;;;;;;;;;27.30;50.70;;;;;;2100673;28;968;-79
2022/06/28 04:33:50;;;;;;;;;;;27.30;50.70;;;;;;2100789;28;879;-79
2022/06/28 04:34:51;;;;;;;;;;;27.30;50.70;;;;;;2100692;28;1200;-79
2022/06/28 04:35:51;;;;;;;;;;;27.30;50.70;;;;;;2100698;28;907;-79
2022/06/28 04:36:52;;;;;;;;;;;27.30;50.70;;;;;;2099908;28;1381;-79
2022/06/28 04:37:52;;;;;;;;;;;27.30;50.70;;;;;;2091746;28;1396;-79
2022/06/28 04:38:52;;;;;;;;;;;27.30;50.70;;;;;;2100258;28;897;-79
2022/06/28 04:39:53;;;;;;;;;;;27.30;50.70;;;;;;2100340;28;1380;-79
2022/06/28 04:40:53;;;;;;;;;;;27.30;50.70;;;;;;2100363;28;984;-78
2022/06/28 04:41:54;;;;;;;;;;;27.30;50.70;;;;;;2101119;28;874;-79
2022/06/28 04:42:55;;;;;;;;;;;27.30;50.70;;;;;;2102341;28;880;-78
2022/06/28 04:43:56;;;;;;;;;;;27.30;50.70;;;;;;2106600;28;1475;-79
2022/06/28 04:44:56;;;;;;;;;;;27.30;50.70;;;;;;2099150;28;1263;-79
2022/06/28 04:45:56;;;;;;;;;;;27.30;50.70;;;;;;2091727;28;1258;-79
2022/06/28 04:46:57;;;;;;;;;;;27.30;50.70;;;;;;2091620;28;1330;-79
2022/06/28 04:47:57;;;;;;;;;;;27.30;50.70;;;;;;2091717;28;1389;-79
2022/06/28 04:48:58;;;;;;;;;;;27.30;50.70;;;;;;2100024;28;1902;-79
2022/06/28 04:49:58;;;;;;;;;;;27.30;50.70;;;;;;2100643;28;1047;-79
2022/06/28 04:51:10;;;;;;;;;;;27.30;50.70;;;;;;2099753;28;1391;-79
2022/06/28 04:52:11;;;;;;;;;;;27.30;50.70;;;;;;2100209;28;900;-79
2022/06/28 04:53:11;;;;;;;;;;;27.30;50.70;;;;;;2100593;28;810;-79
2022/06/28 04:54:11;;;;;;;;;;;27.30;50.70;;;;;;2099921;28;1312;-79
2022/06/28 04:55:12;;;;;;;;;;;27.30;50.70;;;;;;2091596;28;1528;-79
2022/06/28 04:56:13;;;;;;;;;;;27.30;50.70;;;;;;2100024;28;1248;-79
2022/06/28 04:57:13;;;;;;;;;;;27.30;50.70;;;;;;2091599;28;1257;-79
2022/06/28 04:58:13;;;;;;;;;;;27.30;50.70;;;;;;2100055;28;1389;-79
2022/06/28 04:59:14;;;;;;;;;;;27.30;50.70;;;;;;2100005;28;839;-79
2022/06/28 05:00:14;;;;;;;;;;;27.30;50.70;;;;;;2099823;28;1209;-79
2022/06/28 05:01:15;;;;;;;;;;;27.30;50.70;;;;;;2099913;28;846;-79
2022/06/28 05:02:15;;;;;;;;;;;27.30;50.70;;;;;;2100574;28;833;-79
2022/06/28 05:03:15;;;;;;;;;;;27.30;50.70;;;;;;2099871;28;1394;-79
2022/06/28 05:04:16;;;;;;;;;;;27.30;50.70;;;;;;2099985;28;1268;-79
2022/06/28 05:05:16;;;;;;;;;;;27.30;50.70;;;;;;2100632;28;841;-79
2022/06/28 05:06:17;;;;;;;;;;;27.30;50.70;;;;;;2099946;28;1229;-79
2022/06/28 05:07:17;;;;;;;;;;;27.30;50.70;;;;;;2099988;28;1019;-79
2022/06/28 05:08:18;;;;;;;;;;;27.30;50.70;;;;;;2100512;28;850;-79
2022/06/28 05:09:18;;;;;;;;;;;27.30;50.70;;;;;;2099648;28;1894;-79
2022/06/28 05:10:18;;;;;;;;;;;27.30;50.70;;;;;;2091631;28;1361;-79
2022/06/28 05:11:19;;;;;;;;;;;27.30;50.70;;;;;;2099863;28;973;-79
2022/06/28 05:12:20;;;;;;;;;;;27.30;50.70;;;;;;2100614;28;856;-79
2022/06/28 05:13:20;;;;;;;;;;;27.30;50.70;;;;;;2099721;28;1155;-79
2022/06/28 05:14:20;;;;;;;;;;;27.30;50.70;;;;;;2091571;28;1399;-79
2022/06/28 05:15:21;;;;;;;;;;;27.30;50.70;;;;;;2099723;28;1031;-79
2022/06/28 05:16:21;;;;;;;;;;;27.30;50.70;;;;;;2100578;28;806;-79
2022/06/28 05:17:21;;;;;;;;;;;27.30;50.70;;;;;;2099711;28;1335;-79
2022/06/28 05:18:22;;;;;;;;;;;27.30;50.70;;;;;;2091449;28;1281;-79
2022/06/28 05:19:22;;;;;;;;;;;27.30;50.70;;;;;;2099806;28;1271;-79
2022/06/28 05:20:22;;;;;;;;;;;27.30;50.60;;;;;;2099808;28;1036;-79
2022/06/28 05:21:23;;;;;;;;;;;27.30;50.70;;;;;;2100406;28;820;-79
2022/06/28 05:22:23;;;;;;;;;;;27.30;50.60;;;;;;2099718;28;1193;-79
2022/06/28 05:23:24;;;;;;;;;;;27.30;50.60;;;;;;2099749;28;845;-79
2022/06/28 05:24:24;;;;;;;;;;;27.30;50.60;;;;;;2099607;28;1220;-79
2022/06/28 05:25:25;;;;;;;;;;;27.30;50.60;;;;;;2099632;28;925;-79
2022/06/28 05:26:25;;;;;;;;;;;27.30;50.60;;;;;;2100250;28;884;-79
2022/06/28 05:27:26;;;;;;;;;;;27.30;50.60;;;;;;2099483;28;1185;-79
2022/06/28 05:28:26;;;;;;;;;;;27.30;50.60;;;;;;2091463;28;1274;-79
2022/06/28 05:29:27;;;;;;;;;;;27.30;50.60;;;;;;2099495;28;1953;-79
2022/06/28 05:30:27;;;;;;;;;;;27.30;50.60;;;;;;2091215;28;1210;-79
2022/06/28 05:31:28;;;;;;;;;;;27.30;50.60;;;;;;2099696;28;829;-79
2022/06/28 05:32:29;;;;;;;;;;;27.30;50.60;;;;;;2099595;28;1164;-79
2022/06/28 05:33:30;;;;;;;;;;;27.30;50.60;;;;;;2099899;28;852;-79
2022/06/28 05:34:32;;;;;;;;;;;27.30;50.50;;;;;;2099447;28;1343;-79
2022/06/28 05:35:32;;;;;;;;;;;27.30;50.50;;;;;;2091425;28;1224;-79
2022/06/28 05:36:33;;;;;;;;;;;27.40;50.50;;;;;;2091399;28;1383;-79
2022/06/28 05:37:33;;;;;;;;;;;27.30;50.50;;;;;;2099573;28;877;-79
2022/06/28 05:38:34;;;;;;;;;;;27.30;50.50;;;;;;2100401;28;814;-79
2022/06/28 05:39:35;;;;;;;;;;;27.30;50.50;;;;;;2100219;28;880;-79
2022/06/28 05:40:35;;;;;;;;;;;27.40;50.50;;;;;;2099575;28;1380;-79
2022/06/28 05:41:35;;;;;;;;;;;27.30;50.50;;;;;;2099492;28;987;-79
2022/06/28 05:42:36;;;;;;;;;;;27.30;50.50;;;;;;2099394;28;1242;-79
2022/06/28 05:43:36;;;;;;;;;;;27.40;50.50;;;;;;2099783;28;975;-79
2022/06/28 05:44:37;;;;;;;;;;;27.30;50.50;;;;;;2100044;28;1189;-79
2022/06/28 05:45:37;;;;;;;;;;;27.40;50.50;;;;;;2100330;28;845;-78
2022/06/28 05:46:39;;;;;;;;;;;27.40;50.40;;;;;;2100209;28;883;-78
2022/06/28 05:47:40;;;;;;;;;;;27.30;50.10;;;;;;2100210;28;931;-79
2022/06/28 05:48:40;;;;;;;;;;;27.30;50.00;;;;;;2099144;28;1898;-79
2022/06/28 05:49:40;;;;;;;;;;;27.30;50.00;;;;;;2091450;28;1254;-78
2022/06/28 05:50:41;;;;;;;;;;;27.30;50.00;;;;;;2100909;28;1273;-79
2022/06/28 05:51:41;;;;;;;;;;;27.30;49.90;;;;;;2106087;28;1132;-79
2022/06/28 05:52:42;;;;;;;;;;;27.30;50.30;;;;;;2106344;28;1363;-81
2022/06/28 05:53:42;;;;;;;;;;;27.30;50.40;;;;;;2105636;28;996;-79
2022/06/28 05:54:42;;;;;;;;;;;27.30;50.30;;;;;;2109401;28;1268;-78
2022/06/28 05:55:43;;;;;;;;;;;27.30;50.40;;;;;;2102507;28;1012;-79
2022/06/28 05:56:43;;;;;;;;;;;27.40;50.50;;;;;;2100145;28;1470;-78
2022/06/28 05:57:43;;;;;;;;;;;27.40;50.60;;;;;;2091568;28;1232;-79
2022/06/28 05:58:44;;;;;;;;;;;27.40;50.60;;;;;;2099761;28;925;-79
2022/06/28 05:59:45;;;;;;;;;;;27.40;50.70;;;;;;2099518;28;1378;-79
2022/06/28 06:00:45;;;;;;;;;;;27.50;50.70;;;;;;2091326;28;1190;-79
2022/06/28 06:01:45;;;;;;;;;;;27.40;50.90;;;;;;2099380;28;1264;-79
2022/06/28 06:02:46;;;;;;;;;;;27.50;50.80;;;;;;2091180;28;1245;-78
2022/06/28 06:03:46;;;;;;;;;;;27.50;50.70;;;;;;2099532;28;1008;-79
2022/06/28 06:04:46;;;;;;;;;;;27.50;50.70;;;;;;2099957;28;1264;-79
2022/06/28 06:05:47;;;;;;;;;;;27.50;50.90;;;;;;2099512;28;1418;-79
2022/06/28 06:06:47;;;;;;;;;;;27.50;50.80;;;;;;2099712;28;907;-80
2022/06/28 06:07:47;;;;;;;;;;;27.50;50.70;;;;;;2100283;28;1034;-80